Time;durP1;ratioP1;P1;durP2;ratioP2;P2;SDS_P1;SDS_P2;PMS_P1;PMS_P2;Temp;Humidity;BMP_temperature;BMP_pressure;BME280_temperature;BME280_humidity;BME280_pressure;Samples;Min_cycle;Max_cycle;Signal;HPM_P1;HPM_P2
2021/10/20 00:01:44;;;;;;;2.50;2.30;;;10.90;99.90;;;;;;5029812;28;20178;-63
2021/10/20 00:04:12;;;;;;;2.47;2.28;;;10.90;99.90;;;;;;5028051;28;20190;-62
2021/10/20 00:06:38;;;;;;;4.65;3.17;;;10.80;99.90;;;;;;5026522;28;20190;-64
2021/10/20 00:09:04;;;;;;;2.90;2.70;;;10.80;99.90;;;;;;5036107;28;20185;-63
2021/10/20 00:11:30;;;;;;;4.10;3.80;;;10.70;99.90;;;;;;5045751;28;20249;-62
2021/10/20 00:13:56;;;;;;;4.17;3.87;;;10.70;99.90;;;;;;5046501;28;20314;-63
2021/10/20 00:16:23;;;;;;;4.20;3.10;;;10.60;99.90;;;;;;5046552;28;20404;-62
2021/10/20 00:18:49;;;;;;;5.00;4.00;;;10.60;99.90;;;;;;5047872;28;20186;-62
2021/10/20 00:21:24;;;;;;;5.38;3.40;;;10.60;99.90;;;;;;5050487;28;20240;-62
2021/10/20 00:23:50;;;;;;;4.00;3.70;;;10.50;99.90;;;;;;5050198;28;20317;-62
2021/10/20 00:26:15;;;;;;;4.30;3.97;;;10.50;99.90;;;;;;5050217;28;20251;-61
2021/10/20 00:28:41;;;;;;;5.63;3.30;;;10.50;99.90;;;;;;5049800;28;20410;-62
2021/10/20 00:31:07;;;;;;;4.40;3.37;;;10.40;99.90;;;;;;5049444;28;20240;-61
2021/10/20 00:33:32;;;;;;;3.77;3.47;;;10.40;99.90;;;;;;5045899;28;20260;-63
2021/10/20 00:35:58;;;;;;;4.07;3.53;;;10.40;99.90;;;;;;5063198;28;20189;-61
2021/10/20 00:38:24;;;;;;;5.40;4.73;;;10.30;99.90;;;;;;5060831;28;20209;-61
2021/10/20 00:40:53;;;;;;;4.50;4.17;;;10.30;99.90;;;;;;5049956;28;20421;-60
2021/10/20 00:43:21;;;;;;;3.47;3.17;;;10.30;99.90;;;;;;5050114;28;20274;-61
2021/10/20 00:45:48;;;;;;;3.60;3.30;;;10.30;99.90;;;;;;5049854;28;20385;-61
2021/10/20 00:48:14;;;;;;;4.32;3.92;;;10.20;99.90;;;;;;5040163;28;20300;-61
2021/10/20 00:50:40;;;;;;;3.60;2.95;;;10.20;99.90;;;;;;5049345;28;20177;-63
2021/10/20 00:53:06;;;;;;;3.88;3.03;;;10.30;99.90;;;;;;5048452;28;20247;-63
2021/10/20 00:55:32;;;;;;;2.87;2.60;;;10.30;99.90;;;;;;5048400;28;20185;-61
2021/10/20 00:57:58;;;;;;;3.87;3.50;;;10.20;99.90;;;;;;5049193;28;20182;-62
2021/10/20 01:00:23;;;;;;;4.33;3.40;;;10.20;99.90;;;;;;5039282;28;20434;-63
2021/10/20 01:02:49;;;;;;;3.20;3.00;;;10.20;99.90;;;;;;5032555;28;20452;-61
2021/10/20 01:05:15;;;;;;;3.93;3.63;;;10.20;99.90;;;;;;5049253;28;20174;-62
2021/10/20 01:07:42;;;;;;;3.40;2.97;;;10.20;99.90;;;;;;5047842;28;20502;-63
2021/10/20 01:10:09;;;;;;;3.15;2.88;;;10.20;99.90;;;;;;5048799;28;20186;-63
2021/10/20 01:12:36;;;;;;;5.47;4.38;;;10.20;99.90;;;;;;5049211;28;20221;-61
2021/10/20 01:15:08;;;;;;;3.90;3.63;;;10.20;99.90;;;;;;5049181;28;20334;-61
2021/10/20 01:17:34;;;;;;;4.40;3.45;;;10.20;99.90;;;;;;5048631;28;20185;-61
2021/10/20 01:20:01;;;;;;;3.17;2.67;;;10.10;99.90;;;;;;5048641;28;20398;-62
2021/10/20 01:22:27;;;;;;;4.53;3.55;;;10.10;99.90;;;;;;5049107;28;20609;-62
2021/10/20 01:24:54;;;;;;;3.78;2.88;;;10.10;99.90;;;;;;5048936;28;20220;-62
2021/10/20 01:27:19;;;;;;;2.92;2.72;;;10.00;99.90;;;;;;5048616;28;20241;-62
2021/10/20 01:29:45;;;;;;;3.40;3.10;;;10.00;99.90;;;;;;5048688;28;20181;-63
2021/10/20 01:32:11;;;;;;;2.80;2.60;;;9.90;99.90;;;;;;5048426;28;20295;-62
2021/10/20 01:34:36;;;;;;;2.60;2.40;;;9.90;99.90;;;;;;5039148;28;20215;-63
2021/10/20 01:37:04;;;;;;;3.73;3.40;;;9.90;99.90;;;;;;5048425;28;20167;-62
2021/10/20 01:39:31;;;;;;;3.35;3.05;;;9.80;99.90;;;;;;5048817;28;20219;-63
2021/10/20 01:41:57;;;;;;;2.80;2.60;;;9.70;99.90;;;;;;5047981;28;20186;-62
2021/10/20 01:44:22;;;;;;;3.50;3.20;;;9.70;99.90;;;;;;5048639;28;20408;-62
2021/10/20 01:46:49;;;;;;;3.37;3.07;;;9.70;99.90;;;;;;5048309;28;20158;-61
2021/10/20 01:49:14;;;;;;;3.70;3.40;;;9.60;99.90;;;;;;5048083;28;20445;-62
2021/10/20 01:51:40;;;;;;;2.80;2.60;;;9.60;99.90;;;;;;5048081;28;20174;-61
2021/10/20 01:54:07;;;;;;;3.10;2.87;;;9.60;99.90;;;;;;5048284;28;20518;-61
2021/10/20 01:56:34;;;;;;;3.75;3.22;;;9.50;99.90;;;;;;5046565;28;20287;-62
2021/10/20 01:58:59;;;;;;;3.85;3.55;;;9.50;99.90;;;;;;5047952;28;20193;-61
2021/10/20 02:01:25;;;;;;;2.67;2.13;;;9.40;99.90;;;;;;5047959;28;20330;-62
2021/10/20 02:03:51;;;;;;;7.20;2.40;;;9.40;99.90;;;;;;5047533;28;20302;-62
2021/10/20 02:06:18;;;;;;;2.67;2.47;;;9.30;99.90;;;;;;5048133;28;20209;-63
2021/10/20 02:08:46;;;;;;;3.13;2.83;;;9.30;99.90;;;;;;5047732;28;20201;-61
2021/10/20 02:11:12;;;;;;;3.20;2.90;;;9.20;99.90;;;;;;5048002;28;20170;-62
2021/10/20 02:13:41;;;;;;;3.08;2.88;;;9.20;99.90;;;;;;5047937;28;20237;-60
2021/10/20 02:16:06;;;;;;;3.35;2.92;;;9.20;99.90;;;;;;5047593;28;20193;-61
2021/10/20 02:18:32;;;;;;;3.70;3.37;;;9.20;99.90;;;;;;5047543;28;20236;-62
2021/10/20 02:20:59;;;;;;;2.77;2.60;;;9.20;99.90;;;;;;5047859;28;20162;-61
2021/10/20 02:23:25;;;;;;;2.75;2.55;;;9.30;99.90;;;;;;5047879;28;20456;-62
2021/10/20 02:25:51;;;;;;;3.15;2.95;;;9.30;99.90;;;;;;5047838;28;20182;-61
2021/10/20 02:28:16;;;;;;;3.00;2.80;;;9.40;99.90;;;;;;5047386;28;20183;-62
2021/10/20 02:30:42;;;;;;;3.17;2.80;;;9.40;99.90;;;;;;5046831;28;20391;-61
2021/10/20 02:33:09;;;;;;;2.93;2.73;;;9.40;99.90;;;;;;5047658;28;20420;-61
2021/10/20 02:35:36;;;;;;;3.63;2.90;;;9.50;99.90;;;;;;5047234;28;20260;-62
2021/10/20 02:38:01;;;;;;;3.50;2.42;;;9.50;99.90;;;;;;5047083;28;20232;-61
2021/10/20 02:40:27;;;;;;;3.47;3.17;;;9.60;99.90;;;;;;5047405;28;20166;-63
2021/10/20 02:42:53;;;;;;;2.53;2.33;;;9.60;99.90;;;;;;5046436;28;20739;-62
2021/10/20 02:45:19;;;;;;;2.93;2.73;;;9.70;99.90;;;;;;5047440;28;20557;-61
2021/10/20 02:47:45;;;;;;;2.78;2.53;;;9.70;99.90;;;;;;5046919;28;20494;-61
2021/10/20 02:50:12;;;;;;;3.38;2.70;;;9.70;99.90;;;;;;5047068;28;20182;-62
2021/10/20 02:52:37;;;;;;;2.72;2.53;;;9.80;99.90;;;;;;5047278;28;20223;-61
2021/10/20 02:55:05;;;;;;;2.17;2.00;;;9.80;99.90;;;;;;5045272;28;20193;-62
2021/10/20 02:57:31;;;;;;;2.28;2.08;;;9.80;99.90;;;;;;5046933;28;20288;-62
2021/10/20 02:59:57;;;;;;;3.75;3.05;;;9.80;99.90;;;;;;5047348;28;20282;-61
2021/10/20 03:02:24;;;;;;;2.50;2.22;;;9.70;99.90;;;;;;5047295;28;20319;-62
2021/10/20 03:04:50;;;;;;;2.60;2.40;;;9.70;99.90;;;;;;5045148;28;20193;-62
2021/10/20 03:07:16;;;;;;;2.57;2.47;;;9.80;99.90;;;;;;5027626;28;20197;-61
2021/10/20 03:09:41;;;;;;;2.23;2.10;;;9.80;99.90;;;;;;5027476;28;20221;-63
2021/10/20 03:12:07;;;;;;;3.40;3.13;;;9.90;99.90;;;;;;5027262;28;20191;-62
2021/10/20 03:14:33;;;;;;;2.70;2.20;;;9.90;99.90;;;;;;5027353;28;20217;-61
2021/10/20 03:16:58;;;;;;;2.00;1.90;;;10.00;99.90;;;;;;5043245;28;20328;-61
2021/10/20 03:19:24;;;;;;;2.63;2.43;;;10.00;99.90;;;;;;5046542;28;20201;-62
2021/10/20 03:21:50;;;;;;;3.70;3.40;;;10.00;99.90;;;;;;5047231;28;20215;-62
2021/10/20 03:24:15;;;;;;;2.67;2.47;;;10.00;99.90;;;;;;5046984;28;20170;-62
2021/10/20 03:26:41;;;;;;;2.77;2.57;;;9.90;99.90;;;;;;5032581;28;20185;-62
2021/10/20 03:29:07;;;;;;;3.77;3.30;;;9.90;99.90;;;;;;5027123;28;20205;-62
2021/10/20 03:31:32;;;;;;;3.03;2.77;;;9.80;99.90;;;;;;5027115;28;20283;-61
2021/10/20 03:33:58;;;;;;;4.00;3.10;;;9.80;99.90;;;;;;5026987;28;20325;-61
2021/10/20 03:36:24;;;;;;;4.03;2.88;;;9.80;99.90;;;;;;5041484;28;20275;-62
2021/10/20 03:38:50;;;;;;;2.50;2.30;;;9.70;99.90;;;;;;5046452;28;20236;-62
2021/10/20 03:41:16;;;;;;;4.68;3.60;;;9.70;99.90;;;;;;5045553;28;20170;-62
2021/10/20 03:43:41;;;;;;;4.10;2.67;;;9.70;99.90;;;;;;5046913;28;20193;-61
2021/10/20 03:46:07;;;;;;;2.37;2.20;;;9.60;99.90;;;;;;5034596;28;20175;-63
2021/10/20 03:48:34;;;;;;;2.27;2.03;;;9.60;99.90;;;;;;5027483;28;20211;-62
2021/10/20 03:51:00;;;;;;;2.50;2.30;;;9.60;99.90;;;;;;5046802;28;20411;-62
2021/10/20 03:53:25;;;;;;;3.07;2.80;;;9.60;99.90;;;;;;5049706;28;20414;-62
2021/10/20 03:55:51;;;;;;;2.77;2.23;;;9.60;99.90;;;;;;5049983;28;20452;-61
2021/10/20 03:58:17;;;;;;;2.80;2.50;;;9.60;99.90;;;;;;5050390;28;20248;-61
2021/10/20 04:00:44;;;;;;;2.92;2.72;;;9.50;99.90;;;;;;5050648;28;20158;-61
2021/10/20 04:03:09;;;;;;;2.72;2.17;;;9.50;99.90;;;;;;5050009;28;20221;-61
2021/10/20 04:05:35;;;;;;;2.70;2.50;;;9.50;99.90;;;;;;5044008;28;20173;-62
2021/10/20 04:08:01;;;;;;;2.10;2.00;;;9.50;99.90;;;;;;5030287;28;20233;-61
2021/10/20 04:10:27;;;;;;;2.70;2.27;;;9.50;99.90;;;;;;5030514;28;20223;-62
2021/10/20 04:12:54;;;;;;;4.10;2.85;;;9.50;99.90;;;;;;5030579;28;20205;-62
2021/10/20 04:15:22;;;;;;;3.25;2.67;;;9.60;99.90;;;;;;5034343;28;20163;-62
2021/10/20 04:17:48;;;;;;;2.45;2.25;;;9.50;99.90;;;;;;5049476;28;20197;-61
2021/10/20 04:20:17;;;;;;;3.30;2.57;;;9.50;99.90;;;;;;5050352;28;20212;-60
2021/10/20 04:22:43;;;;;;;3.30;2.67;;;9.40;99.90;;;;;;5050154;28;20374;-62
2021/10/20 04:25:10;;;;;;;2.78;2.58;;;9.40;99.90;;;;;;5048462;28;20179;-61
2021/10/20 04:27:36;;;;;;;2.70;2.50;;;9.40;99.90;;;;;;5029902;28;20194;-62
2021/10/20 04:30:06;;;;;;;2.78;2.53;;;9.30;99.90;;;;;;5030146;28;20162;-61
2021/10/20 04:32:32;;;;;;;3.70;3.40;;;9.30;99.90;;;;;;5038624;28;20177;-61
2021/10/20 04:35:00;;;;;;;2.40;2.30;;;9.20;99.90;;;;;;5049798;28;20166;-62
2021/10/20 04:37:26;;;;;;;2.83;2.58;;;9.20;99.90;;;;;;5040731;28;20282;-61
2021/10/20 04:39:56;;;;;;;3.47;2.85;;;9.20;99.90;;;;;;5069958;28;20289;-62
2021/10/20 04:42:22;;;;;;;2.25;2.05;;;9.20;99.90;;;;;;5069779;28;20181;-62
2021/10/20 04:44:48;;;;;;;3.07;2.77;;;9.10;99.90;;;;;;5061657;28;20212;-62
2021/10/20 04:47:13;;;;;;;2.40;2.23;;;9.10;99.90;;;;;;5037678;28;20384;-61
2021/10/20 04:49:39;;;;;;;1.80;1.70;;;9.10;99.90;;;;;;5041699;28;20163;-62
2021/10/20 04:52:05;;;;;;;3.97;3.20;;;9.10;99.90;;;;;;5029800;28;20186;-62
2021/10/20 04:54:30;;;;;;;2.77;2.57;;;9.00;99.90;;;;;;5029680;28;20214;-62
2021/10/20 04:56:56;;;;;;;7.03;2.87;;;9.00;99.90;;;;;;5048812;28;20423;-61
2021/10/20 04:59:23;;;;;;;3.10;2.80;;;8.90;99.90;;;;;;5049397;28;20186;-63
2021/10/20 05:01:48;;;;;;;3.03;2.83;;;8.90;99.90;;;;;;5048890;28;20171;-61
2021/10/20 05:04:14;;;;;;;3.13;2.93;;;8.90;99.90;;;;;;5038762;28;20195;-62
2021/10/20 05:06:40;;;;;;;4.23;3.20;;;8.90;99.90;;;;;;5047475;28;20173;-61
2021/10/20 05:09:05;;;;;;;4.10;2.50;;;8.90;99.90;;;;;;5047383;28;20218;-61
2021/10/20 05:11:31;;;;;;;3.90;3.00;;;8.80;99.90;;;;;;5048982;28;20166;-62
2021/10/20 05:13:57;;;;;;;3.60;3.30;;;8.80;99.90;;;;;;5048991;28;20198;-66
2021/10/20 05:16:22;;;;;;;2.97;2.73;;;8.80;99.90;;;;;;5047131;28;20174;-61
2021/10/20 05:18:48;;;;;;;3.63;3.33;;;8.70;99.90;;;;;;5047478;28;20197;-62
2021/10/20 05:21:13;;;;;;;2.80;2.60;;;8.70;99.90;;;;;;5029238;28;20185;-62
2021/10/20 05:23:39;;;;;;;3.13;2.83;;;8.60;99.90;;;;;;5029163;28;20364;-61
2021/10/20 05:26:05;;;;;;;4.93;2.63;;;8.60;99.90;;;;;;5029151;28;20173;-62
2021/10/20 05:28:30;;;;;;;2.80;2.13;;;8.50;99.90;;;;;;5029256;28;20189;-61
2021/10/20 05:30:56;;;;;;;3.30;3.00;;;8.40;99.90;;;;;;5048462;28;20189;-62
2021/10/20 05:33:21;;;;;;;3.40;3.10;;;8.40;99.90;;;;;;5047201;28;20240;-61
2021/10/20 05:35:48;;;;;;;3.30;3.00;;;8.30;99.90;;;;;;5048902;28;20171;-60
2021/10/20 05:38:13;;;;;;;2.78;2.58;;;8.30;99.90;;;;;;5047674;28;20204;-62
2021/10/20 05:40:39;;;;;;;2.10;2.00;;;8.20;99.90;;;;;;5048119;28;20246;-62
2021/10/20 05:43:05;;;;;;;3.70;2.53;;;8.20;99.90;;;;;;5037589;28;20385;-62
2021/10/20 05:45:30;;;;;;;4.17;3.33;;;8.10;99.90;;;;;;5041266;28;20212;-61
2021/10/20 05:47:56;;;;;;;3.43;3.13;;;8.10;99.90;;;;;;5029503;28;20263;-67
2021/10/20 05:50:22;;;;;;;3.72;3.05;;;8.10;99.90;;;;;;5028756;28;20163;-62
2021/10/20 05:52:48;;;;;;;2.80;2.43;;;8.20;99.90;;;;;;5028521;28;20263;-63
2021/10/20 05:55:14;;;;;;;6.77;4.50;;;8.20;99.90;;;;;;5028210;28;20183;-64
2021/10/20 05:57:39;;;;;;;8.87;5.07;;;8.30;99.90;;;;;;5025609;28;20221;-64
2021/10/20 06:00:11;;;;;;;5.37;3.40;;;8.20;99.90;;;;;;5028548;28;20373;-64
2021/10/20 06:02:37;;;;;;;2.30;2.20;;;8.30;99.90;;;;;;5028146;28;20422;-63
2021/10/20 06:05:03;;;;;;;3.17;2.88;;;8.30;99.90;;;;;;5027768;28;20173;-63
2021/10/20 06:07:28;;;;;;;2.30;2.20;;;8.30;99.90;;;;;;5027949;28;20200;-63
2021/10/20 06:09:54;;;;;;;5.03;3.47;;;8.30;99.90;;;;;;5028129;28;20174;-64
2021/10/20 06:12:20;;;;;;;3.17;2.87;;;8.30;99.90;;;;;;5028405;28;20182;-63
2021/10/20 06:14:45;;;;;;;3.80;3.40;;;8.40;99.90;;;;;;5027143;28;20272;-64
2021/10/20 06:17:11;;;;;;;4.00;2.83;;;8.50;99.90;;;;;;5025040;28;20387;-63
2021/10/20 06:19:37;;;;;;;2.90;2.70;;;8.50;99.90;;;;;;5026291;28;20239;-64
2021/10/20 06:22:03;;;;;;;3.80;3.17;;;8.60;99.90;;;;;;5025446;28;20387;-64
2021/10/20 06:24:29;;;;;;;3.72;3.25;;;8.70;99.90;;;;;;5026082;28;20213;-64
2021/10/20 06:26:54;;;;;;;4.10;3.70;;;8.70;99.90;;;;;;5026016;28;20206;-64
2021/10/20 06:29:22;;;;;;;4.50;4.10;;;8.80;99.90;;;;;;5026634;28;20319;-63
2021/10/20 06:31:48;;;;;;;4.43;3.30;;;8.90;99.90;;;;;;5027807;28;20286;-63
2021/10/20 06:34:14;;;;;;;3.30;3.00;;;9.00;99.90;;;;;;5027780;28;20224;-63
2021/10/20 06:36:41;;;;;;;7.83;4.10;;;9.00;99.90;;;;;;5027710;28;20298;-64
2021/10/20 06:39:07;;;;;;;9.50;5.28;;;9.00;99.90;;;;;;5027763;28;20255;-64
2021/10/20 06:41:32;;;;;;;4.47;3.77;;;9.10;99.90;;;;;;5027667;28;20174;-63
2021/10/20 06:43:58;;;;;;;3.63;3.33;;;9.10;99.90;;;;;;5027740;28;20170;-64
2021/10/20 06:46:24;;;;;;;4.82;4.18;;;9.20;99.90;;;;;;5027779;28;20206;-62
2021/10/20 06:48:50;;;;;;;5.10;4.20;;;9.20;99.90;;;;;;5027430;28;20199;-63
2021/10/20 06:51:16;;;;;;;5.57;5.05;;;9.30;99.90;;;;;;5027627;28;20177;-63
2021/10/20 06:53:42;;;;;;;3.40;3.10;;;9.40;99.90;;;;;;5027529;28;20202;-64
2021/10/20 06:56:08;;;;;;;5.97;4.77;;;9.50;99.90;;;;;;5027523;28;20178;-63
2021/10/20 06:58:34;;;;;;;5.70;4.20;;;9.50;99.90;;;;;;5027278;28;20198;-63
2021/10/20 07:01:00;;;;;;;3.97;3.65;;;9.60;99.90;;;;;;5027431;28;20445;-64
2021/10/20 07:03:25;;;;;;;5.60;4.13;;;9.70;99.90;;;;;;5027401;28;20171;-63
2021/10/20 07:05:51;;;;;;;5.13;4.70;;;9.80;99.90;;;;;;5027359;28;20499;-64
2021/10/20 07:08:17;;;;;;;5.67;4.40;;;10.00;99.90;;;;;;5026260;28;20187;-64
2021/10/20 07:10:43;;;;;;;5.23;4.60;;;10.20;99.90;;;;;;5027488;28;20294;-64
2021/10/20 07:13:08;;;;;;;3.43;3.13;;;10.50;99.90;;;;;;5027296;28;20206;-63
2021/10/20 07:15:34;;;;;;;4.13;3.73;;;10.70;99.90;;;;;;5027409;28;20204;-64
2021/10/20 07:18:00;;;;;;;4.37;2.90;;;11.00;99.90;;;;;;5026996;28;20179;-63
2021/10/20 07:20:25;;;;;;;3.87;3.40;;;11.20;99.90;;;;;;5027151;28;20246;-64
2021/10/20 07:22:51;;;;;;;3.00;2.80;;;11.40;99.90;;;;;;5027055;28;20168;-65
2021/10/20 07:25:19;;;;;;;3.90;3.00;;;11.60;99.90;;;;;;5027150;28;20259;-64
2021/10/20 07:27:46;;;;;;;2.47;2.27;;;11.90;99.90;;;;;;5026603;28;20190;-63
2021/10/20 07:30:12;;;;;;;2.73;2.57;;;12.20;99.90;;;;;;5027118;28;20432;-64
2021/10/20 07:32:39;;;;;;;4.87;2.67;;;12.50;99.90;;;;;;5027035;28;20397;-64
2021/10/20 07:35:06;;;;;;;3.83;2.60;;;12.70;99.90;;;;;;5027098;28;20544;-64
2021/10/20 07:37:32;;;;;;;2.97;2.47;;;12.90;99.90;;;;;;5026609;28;20639;-65
2021/10/20 07:39:58;;;;;;;2.60;2.40;;;13.20;99.90;;;;;;5027115;28;20433;-65
2021/10/20 07:42:24;;;;;;;3.33;3.03;;;13.60;99.90;;;;;;5026967;28;20240;-65
2021/10/20 07:44:50;;;;;;;3.13;2.90;;;14.20;99.90;;;;;;5026969;28;20389;-64
2021/10/20 07:47:17;;;;;;;2.83;2.33;;;15.10;99.90;;;;;;5026379;28;20244;-64
2021/10/20 07:49:42;;;;;;;3.07;2.30;;;16.30;99.90;;;;;;5026876;28;20402;-65
2021/10/20 07:52:08;;;;;;;2.10;2.00;;;17.30;99.90;;;;;;5026897;28;20527;-66
2021/10/20 07:54:34;;;;;;;2.53;2.33;;;18.30;99.90;;;;;;5026768;28;20206;-65
2021/10/20 07:56:59;;;;;;;2.60;2.40;;;19.40;99.30;;;;;;5026634;28;20162;-65
2021/10/20 07:59:25;;;;;;;2.10;1.80;;;20.30;97.50;;;;;;5026783;28;20403;-63
2021/10/20 08:01:51;;;;;;;4.43;3.83;;;21.10;95.70;;;;;;5026807;28;20190;-64
2021/10/20 08:04:17;;;;;;;2.43;2.23;;;21.80;93.50;;;;;;5026747;28;20163;-64
2021/10/20 08:06:43;;;;;;;5.93;3.07;;;22.40;93.10;;;;;;5026447;28;20320;-65
2021/10/20 08:09:09;;;;;;;2.73;2.53;;;23.10;91.80;;;;;;5026690;28;20417;-65
2021/10/20 08:11:35;;;;;;;3.30;2.53;;;23.50;90.90;;;;;;5026772;28;20373;-64
2021/10/20 08:14:03;;;;;;;3.43;3.10;;;23.70;90.10;;;;;;5026780;28;20221;-64
2021/10/20 08:16:29;;;;;;;3.87;2.30;;;23.90;88.40;;;;;;5026609;28;20222;-65
2021/10/20 08:18:55;;;;;;;3.10;2.80;;;24.20;87.80;;;;;;5026578;28;20448;-65
2021/10/20 08:21:20;;;;;;;2.50;2.30;;;24.70;86.20;;;;;;5026559;28;20397;-66
2021/10/20 08:23:47;;;;;;;2.90;2.70;;;25.20;82.40;;;;;;5026906;28;20422;-63
2021/10/20 08:26:12;;;;;;;2.10;1.90;;;25.30;80.70;;;;;;5026655;28;20163;-65
2021/10/20 08:28:38;;;;;;;2.57;2.37;;;25.50;76.70;;;;;;5026306;28;20449;-65
2021/10/20 08:31:04;;;;;;;2.00;1.90;;;25.80;75.60;;;;;;5026398;28;20175;-65
2021/10/20 08:33:30;;;;;;;2.40;2.00;;;26.20;75.50;;;;;;5026495;28;20516;-64
2021/10/20 08:35:56;;;;;;;2.43;2.27;;;26.70;73.30;;;;;;5026482;28;20162;-65
2021/10/20 08:38:22;;;;;;;1.90;1.80;;;27.10;72.40;;;;;;5026088;28;20449;-65
2021/10/20 08:40:47;;;;;;;2.37;2.13;;;27.40;70.90;;;;;;5029671;28;20171;-65
2021/10/20 08:43:18;;;;;;;2.40;2.20;;;27.40;69.00;;;;;;5030043;28;20275;-64
2021/10/20 08:45:45;;;;;;;2.30;2.10;;;27.10;68.60;;;;;;5029961;28;20198;-65
2021/10/20 08:48:13;;;;;;;1.80;1.70;;;26.30;68.70;;;;;;5029627;28;20485;-64
2021/10/20 08:50:39;;;;;;;2.00;1.87;;;25.70;69.70;;;;;;5029913;28;20414;-65
2021/10/20 08:53:05;;;;;;;4.93;2.27;;;25.30;71.10;;;;;;5029738;28;20508;-65
2021/10/20 08:55:32;;;;;;;2.50;2.10;;;24.80;72.40;;;;;;5029546;28;20512;-65
2021/10/20 08:57:59;;;;;;;4.33;1.70;;;24.30;74.40;;;;;;5029502;28;20404;-65
2021/10/20 09:00:25;;;;;;;2.60;2.40;;;24.40;75.80;;;;;;5029665;28;20418;-65
2021/10/20 09:02:51;;;;;;;3.00;2.80;;;24.40;75.10;;;;;;5029676;28;20411;-65
2021/10/20 09:05:22;;;;;;;2.00;1.90;;;24.50;75.60;;;;;;5029732;28;20163;-64
2021/10/20 09:07:51;;;;;;;2.40;2.20;;;24.60;76.60;;;;;;5029450;28;20456;-65
2021/10/20 09:10:17;;;;;;;2.60;2.17;;;24.60;76.30;;;;;;5029481;28;20660;-64
2021/10/20 09:12:43;;;;;;;12.73;2.10;;;24.70;76.30;;;;;;5029310;28;20579;-64
2021/10/20 09:15:15;;;;;;;1.83;1.70;;;25.00;76.90;;;;;;5029226;28;20397;-64
2021/10/20 09:17:50;;;;;;;1.83;1.73;;;25.30;75.70;;;;;;5028998;28;20701;-64
2021/10/20 09:20:23;;;;;;;3.70;2.10;;;25.40;76.20;;;;;;5029466;28;20412;-64
2021/10/20 09:23:18;;;;;;;2.37;2.17;;;25.20;76.00;;;;;;5029434;28;20593;-64
2021/10/20 09:25:56;;;;;;;2.33;1.93;;;25.10;76.60;;;;;;5027201;28;20422;-64
2021/10/20 09:28:37;;;;;;;2.43;2.23;;;25.30;76.50;;;;;;5028651;28;20440;-63
2021/10/20 09:31:06;;;;;;;2.73;2.20;;;25.40;76.40;;;;;;5029208;28;20412;-64
2021/10/20 09:33:40;;;;;;;2.40;2.20;;;25.50;76.70;;;;;;5028949;28;20499;-64
2021/10/20 09:36:14;;;;;;;2.57;2.10;;;25.40;77.20;;;;;;5029144;28;20494;-64
2021/10/20 09:38:49;;;;;;;2.10;1.90;;;25.10;75.70;;;;;;5028994;28;20513;-63
2021/10/20 09:41:16;;;;;;;2.77;1.80;;;24.60;77.00;;;;;;5029095;28;20405;-63
2021/10/20 09:43:44;;;;;;;2.70;2.50;;;24.00;79.00;;;;;;5028863;28;20653;-64
2021/10/20 09:46:10;;;;;;;2.47;2.27;;;24.00;79.70;;;;;;5028698;28;20411;-64
2021/10/20 09:48:40;;;;;;;1.77;1.67;;;24.10;80.00;;;;;;5028407;28;20401;-64
2021/10/20 09:51:13;;;;;;;2.50;1.77;;;24.20;79.80;;;;;;5028588;28;20426;-63
2021/10/20 09:53:41;;;;;;;2.27;2.07;;;24.20;80.10;;;;;;5028693;28;20511;-64
2021/10/20 09:56:22;;;;;;;1.63;1.53;;;24.10;80.20;;;;;;5028587;28;20422;-65
2021/10/20 09:58:52;;;;;;;2.20;2.00;;;24.20;79.50;;;;;;5028298;28;20557;-64
2021/10/20 10:01:21;;;;;;;1.83;1.73;;;24.20;80.10;;;;;;5028581;28;20466;-64
2021/10/20 10:03:48;;;;;;;2.50;2.20;;;24.30;79.20;;;;;;5028700;28;20392;-64
2021/10/20 10:06:14;;;;;;;1.83;1.73;;;23.90;78.90;;;;;;5028435;28;20565;-63
2021/10/20 10:08:40;;;;;;;3.70;1.70;;;23.60;80.00;;;;;;5028146;28;20505;-64
2021/10/20 10:11:20;;;;;;;5.60;2.10;;;23.60;80.90;;;;;;5028420;28;20409;-64
2021/10/20 10:13:53;;;;;;;4.73;1.70;;;23.80;80.60;;;;;;5028193;28;20423;-64
2021/10/20 10:16:22;;;;;;;1.70;1.60;;;24.20;80.50;;;;;;5028195;28;20550;-64
2021/10/20 10:18:48;;;;;;;1.70;1.57;;;24.40;78.70;;;;;;5027861;28;20416;-64
2021/10/20 10:21:32;;;;;;;2.63;1.37;;;24.50;78.50;;;;;;5028233;28;20386;-64
2021/10/20 10:23:59;;;;;;;3.00;2.60;;;24.70;78.10;;;;;;5028142;28;20461;-66
2021/10/20 10:26:26;;;;;;;1.93;1.73;;;25.00;77.00;;;;;;5028083;28;20504;-64
2021/10/20 10:29:13;;;;;;;2.07;1.87;;;25.00;76.90;;;;;;5027715;28;20447;-65
2021/10/20 10:31:43;;;;;;;1.73;1.63;;;24.80;77.00;;;;;;5028110;28;20379;-64
2021/10/20 10:34:30;;;;;;;1.93;1.83;;;24.80;78.50;;;;;;5027928;28;20425;-64
2021/10/20 10:36:58;;;;;;;1.83;1.73;;;24.70;78.40;;;;;;5027526;28;20378;-65
2021/10/20 10:39:24;;;;;;;1.70;1.60;;;24.70;79.80;;;;;;5027927;28;20413;-65
2021/10/20 10:41:55;;;;;;;1.63;1.53;;;24.70;78.00;;;;;;5027828;28;20463;-65
2021/10/20 10:44:26;;;;;;;3.80;1.60;;;24.50;78.70;;;;;;5027615;28;20187;-65
2021/10/20 10:49:53;;;;;;;1.93;1.77;;;23.90;79.80;;;;;;5027981;28;20628;-64
2021/10/20 10:52:39;;;;;;;1.67;1.57;;;23.80;80.00;;;;;;5027727;28;20481;-65
2021/10/20 10:55:17;;;;;;;2.33;1.77;;;23.80;80.40;;;;;;5027496;28;20405;-65
2021/10/20 10:57:54;;;;;;;3.10;1.97;;;24.00;81.40;;;;;;5027080;28;20431;-65
2021/10/20 11:00:20;;;;;;;2.67;2.30;;;24.00;80.00;;;;;;5027665;28;20731;-64
2021/10/20 11:02:55;;;;;;;1.90;1.80;;;23.80;81.10;;;;;;5027070;28;20390;-64
2021/10/20 11:05:32;;;;;;;3.43;1.93;;;23.60;82.30;;;;;;5027583;28;20391;-64
2021/10/20 11:08:03;;;;;;;1.50;1.40;;;23.50;82.30;;;;;;5027163;28;20518;-64
2021/10/20 11:10:30;;;;;;;2.67;2.47;;;23.40;81.60;;;;;;5027408;28;20377;-65
2021/10/20 11:12:57;;;;;;;2.40;2.30;;;23.40;82.50;;;;;;5027359;28;20440;-64
2021/10/20 11:15:24;;;;;;;2.10;1.93;;;23.30;82.50;;;;;;5027428;28;20452;-64
2021/10/20 11:17:50;;;;;;;1.70;1.60;;;23.30;83.30;;;;;;5027100;28;20442;-64
2021/10/20 11:20:18;;;;;;;1.90;1.70;;;23.30;83.30;;;;;;5027247;28;20384;-65
2021/10/20 11:22:46;;;;;;;2.10;1.90;;;23.30;83.70;;;;;;5027096;28;20171;-65
2021/10/20 11:25:12;;;;;;;1.27;1.17;;;23.20;85.60;;;;;;5027297;28;20423;-64
2021/10/20 11:27:38;;;;;;;2.20;2.00;;;23.10;84.20;;;;;;5026609;28;20408;-65
2021/10/20 11:30:07;;;;;;;2.40;2.13;;;23.00;84.10;;;;;;5027047;28;20438;-66
2021/10/20 11:32:35;;;;;;;1.70;1.60;;;23.00;84.90;;;;;;5027009;28;20600;-65
2021/10/20 11:35:02;;;;;;;2.67;1.60;;;23.10;85.80;;;;;;5026987;28;20675;-66
2021/10/20 11:37:27;;;;;;;4.10;1.87;;;23.10;85.40;;;;;;5025823;28;20437;-67
2021/10/20 11:40:02;;;;;;;1.60;1.47;;;23.20;86.10;;;;;;5027030;28;20392;-66
2021/10/20 11:42:29;;;;;;;1.60;1.50;;;23.20;85.50;;;;;;5026058;28;20277;-65
2021/10/20 11:45:03;;;;;;;1.63;1.53;;;23.20;85.90;;;;;;5027012;28;20389;-68
2021/10/20 11:47:29;;;;;;;1.53;1.43;;;23.20;85.10;;;;;;5026526;28;20502;-68
2021/10/20 11:49:54;;;;;;;1.70;1.60;;;23.20;84.50;;;;;;5026898;28;20374;-64
2021/10/20 11:52:23;;;;;;;2.30;2.10;;;23.20;85.90;;;;;;5027104;28;20409;-66
2021/10/20 11:54:49;;;;;;;1.73;1.63;;;23.30;87.10;;;;;;5026496;28;20222;-67
2021/10/20 11:57:16;;;;;;;1.47;1.37;;;23.30;85.50;;;;;;5025552;28;20520;-68
2021/10/20 11:59:43;;;;;;;3.30;1.40;;;23.40;85.00;;;;;;5026851;28;20542;-64
2021/10/20 12:02:09;;;;;;;1.57;1.23;;;23.30;85.40;;;;;;5026702;28;20457;-65
2021/10/20 12:04:38;;;;;;;1.97;1.67;;;23.30;85.90;;;;;;5026618;28;20371;-64
2021/10/20 12:07:05;;;;;;;1.90;1.60;;;23.50;86.70;;;;;;5026503;28;20418;-71
2021/10/20 12:09:32;;;;;;;1.40;1.30;;;23.50;86.60;;;;;;5026742;28;20375;-70
2021/10/20 12:12:00;;;;;;;1.40;1.30;;;23.60;85.90;;;;;;5026547;28;20473;-66
2021/10/20 12:14:35;;;;;;;2.20;2.10;;;23.60;85.50;;;;;;5027791;28;20591;-63
2021/10/20 12:17:02;;;;;;;1.90;1.67;;;23.60;86.00;;;;;;5030560;28;20577;-65
2021/10/20 12:19:33;;;;;;;1.50;1.40;;;23.60;85.80;;;;;;5029782;28;20485;-65
2021/10/20 12:22:07;;;;;;;3.03;1.83;;;23.50;85.70;;;;;;5030558;28;20419;-64
2021/10/20 12:24:39;;;;;;;1.37;1.27;;;23.50;86.60;;;;;;5028920;28;20613;-65
2021/10/20 12:27:10;;;;;;;1.43;1.17;;;23.50;86.40;;;;;;5028230;28;20391;-64
2021/10/20 12:29:52;;;;;;;1.57;1.47;;;23.40;88.50;;;;;;5028685;28;20638;-64
2021/10/20 12:32:26;;;;;;;2.63;2.43;;;23.30;87.10;;;;;;5028960;28;20412;-65
2021/10/20 12:35:03;;;;;;;2.37;2.17;;;23.40;87.50;;;;;;5028670;28;20569;-63
2021/10/20 12:37:41;;;;;;;2.17;1.93;;;23.50;87.10;;;;;;5028444;28;20463;-66
2021/10/20 12:40:14;;;;;;;1.53;1.43;;;23.50;87.00;;;;;;5029055;28;20665;-66
2021/10/20 12:42:52;;;;;;;3.73;2.10;;;23.50;86.90;;;;;;5030206;28;20380;-66
2021/10/20 12:45:19;;;;;;;0.90;0.90;;;23.40;87.50;;;;;;5029310;28;20389;-66
2021/10/20 12:47:56;;;;;;;1.50;1.40;;;23.40;87.40;;;;;;5029685;28;20392;-65
2021/10/20 12:50:25;;;;;;;2.17;2.00;;;23.40;88.10;;;;;;5029959;28;20369;-67
2021/10/20 12:52:52;;;;;;;2.37;2.00;;;23.40;88.30;;;;;;5029649;28;20435;-65
2021/10/20 12:55:20;;;;;;;2.43;1.40;;;23.40;88.60;;;;;;5029719;28;20426;-64